FW1206 Victoria CA current weather conditions

sailwx.info

Wind from 359 at 2 knots gusting 4

Air temperature 7.8° C
Dewpoint 6.9° C

Last reported at 2019-Nov-14 10:46 UTC.
Time now 2019-Nov-14 11:21 UTC

Location: N 48°27' W 123°21'.
View on Google Maps.

See reports from other nearby stations

  
Tides and Currents Weather Stations Pressure Air Temp Water Temp Dewpoint Dewpoint Depression Visibility Wind Speed Wind Dir Waves Ship Positions
date/time (UTC)wind fromknots sea level pressurealtimeterstation pressurevisibilityair tempwater tempwave heightnotes
2019-Nov-14 10:46 359 2 gusting 4 7.8
2019-Nov-14 10:31 344 1 gusting 5 7.8
2019-Nov-14 10:16 348 2 gusting 6 7.8
2019-Nov-14 10:01 342 1 gusting 5 7.8
2019-Nov-14 09:46 349 1 gusting 4 7.8
2019-Nov-14 09:31 017 1 gusting 5 7.8
2019-Nov-14 09:16 004 2 gusting 6 7.8
2019-Nov-14 09:01 356 2 gusting 7 7.8
2019-Nov-14 08:46 009 2 gusting 6 7.8
2019-Nov-14 08:30 328 2 gusting 6 7.8
2019-Nov-14 08:15 011 1 gusting 5 7.8
2019-Nov-14 08:01 018 7.8
2019-Nov-14 07:45 015 2 gusting 7 7.8
2019-Nov-14 07:30 030 3 gusting 6 7.8
2019-Nov-14 07:16 328 1 gusting 4 7.8
2019-Nov-14 07:01 348 2 gusting 5 7.8
2019-Nov-14 06:45 013 1 gusting 6 7.8
2019-Nov-14 06:30 346 1 gusting 4 7.8
2019-Nov-14 06:15 353 1 gusting 4 7.8
2019-Nov-14 06:00 007 1 gusting 4 7.8
2019-Nov-14 05:45 008 1 gusting 4 7.8
2019-Nov-14 05:30 005 1 gusting 4 7.8
2019-Nov-14 05:15 003 1 gusting 2 7.2
2019-Nov-14 05:00 352 0 gusting 3 7.2
2019-Nov-14 04:45 012 0 gusting 3 7.2
2019-Nov-14 04:30 018 0 gusting 3 7.8
2019-Nov-14 04:15 003 1 gusting 4 7.8
2019-Nov-14 04:00 359 0 gusting 1 7.8
2019-Nov-14 03:46 029 0 gusting 3 7.8
2019-Nov-14 03:30 012 0 gusting 2 7.8
2019-Nov-14 03:15 354 1 gusting 3 7.8
2019-Nov-14 03:00 002 0 gusting 3 7.8
2019-Nov-14 02:45 004 0 gusting 2 7.8
2019-Nov-14 02:30 359 0 gusting 2 7.8
2019-Nov-14 02:15 011 0 gusting 3 7.8
2019-Nov-14 02:00 354 7.8
2019-Nov-14 01:45 357 0 gusting 3 8.3
2019-Nov-14 01:30 002 8.3
2019-Nov-14 01:15 023 1 gusting 5 8.3
2019-Nov-14 00:47 020 2 gusting 5 8.9
2019-Nov-14 00:31 337 2 gusting 6 8.9
2019-Nov-14 00:17 024 1 gusting 5 9.4
2019-Nov-14 00:02 011 1 gusting 3 9.4
2019-Nov-13 23:46 005 1 gusting 6 10.0
2019-Nov-13 23:31 343 2 gusting 6 10.0
2019-Nov-13 23:16 003 2 gusting 7 10.0
2019-Nov-13 23:01 015 2 gusting 6 10.0
2019-Nov-13 22:46 348 2 gusting 6 10.0
2019-Nov-13 22:32 019 1 gusting 6 10.0
2019-Nov-13 22:16 001 0 gusting 6 10.0
2019-Nov-13 22:00 350 4 gusting 8 10.0
2019-Nov-13 21:46 352 2 gusting 6 10.0
2019-Nov-13 21:31 011 3 gusting 8 9.4
2019-Nov-13 21:15 358 1 gusting 3 10.0
2019-Nov-13 21:00 343 1 gusting 5 9.4
2019-Nov-13 20:46 031 1 gusting 6 9.4
2019-Nov-13 20:30 019 1 gusting 7 9.4
2019-Nov-13 20:16 001 2 gusting 4 9.4
2019-Nov-13 20:00 034 1 gusting 5 9.4
2019-Nov-13 19:45 347 0 gusting 5 9.4
2019-Nov-13 19:30 024 1 gusting 6 9.4
2019-Nov-13 19:16 340 2 gusting 7 9.4
2019-Nov-13 19:01 358 1 gusting 6 9.4
2019-Nov-13 18:45 051 3 gusting 8 8.9
2019-Nov-13 18:30 337 0 gusting 4 8.9
2019-Nov-13 18:15 023 0 gusting 5 8.9
2019-Nov-13 18:00 347 2 gusting 5 8.9
2019-Nov-13 17:45 007 1 gusting 3 8.9
2019-Nov-13 17:30 016 8.9
2019-Nov-13 17:15 004 0 gusting 3 8.9
2019-Nov-13 17:00 045 1 gusting 4 8.3
2019-Nov-13 16:45 022 0 gusting 2 8.3
2019-Nov-13 16:30 345 8.3
2019-Nov-13 16:15 008 8.3
2019-Nov-13 16:00 353 0 gusting 2 8.3
2019-Nov-13 15:45 001 8.3
2019-Nov-13 15:30 333 7.8
2019-Nov-13 15:15 336 7.8
2019-Nov-13 15:00 354 0 gusting 5 7.8
2019-Nov-13 14:45 019 0 gusting 2 7.8
2019-Nov-13 14:30 005 0 gusting 2 7.8
2019-Nov-13 14:15 002 0 gusting 2 8.3
2019-Nov-13 14:00 354 8.3
2019-Nov-13 13:47 008 8.3
2019-Nov-13 13:32 032 7.8
2019-Nov-13 13:16 013 7.8
2019-Nov-13 13:02 013 7.2
2019-Nov-13 12:46 013 7.2
2019-Nov-13 12:32 013 7.8
2019-Nov-13 12:17 330 7.8
2019-Nov-13 12:01 008 1 gusting 4 8.3
2019-Nov-13 11:46 355 1 gusting 5 8.3
2019-Nov-13 11:31 018 1 gusting 3 8.3
2019-Nov-13 11:16 338 1 gusting 4 8.3
2019-Nov-13 11:02 340 0 gusting 5 8.3
2019-Nov-13 10:46 358 8.3
2019-Nov-13 10:32 044 8.3
2019-Nov-13 10:16 345 8.3
2019-Nov-13 10:02 025 8.3
2019-Nov-13 09:46 039 8.3
2019-Nov-13 09:32 325 8.3
2019-Nov-13 09:16 001 0 gusting 2 8.3
2019-Nov-13 09:02 003 8.3
2019-Nov-13 08:45 356 8.3
2019-Nov-13 08:31 353 0 gusting 2 8.3
2019-Nov-13 08:16 345 8.3
2019-Nov-13 08:01 343 0 gusting 2 8.3
2019-Nov-13 07:46 002 8.3
2019-Nov-13 07:31 347 8.3
2019-Nov-13 07:15 051 7.8
2019-Nov-13 07:01 055 7.8
2019-Nov-13 06:45 015 7.8
2019-Nov-13 06:31 038 7.8
2019-Nov-13 06:15 023 7.8
2019-Nov-13 06:01 014 0 gusting 1 7.8
2019-Nov-13 05:45 003 0 gusting 2 7.2
2019-Nov-13 05:30 197 7.8
2019-Nov-13 05:15 198 7.8
2019-Nov-13 05:01 145 7.8
2019-Nov-13 04:45 139 7.8
2019-Nov-13 04:30 174 8.3
2019-Nov-13 04:16 131 8.3
2019-Nov-13 04:00 200 8.3
2019-Nov-13 03:45 198 8.3
2019-Nov-13 03:30 147 8.3
2019-Nov-13 03:15 288 8.3
2019-Nov-13 03:00 131 8.3
2019-Nov-13 02:45 205 8.3
2019-Nov-13 02:30 199 8.3
2019-Nov-13 02:15 160 8.3
2019-Nov-13 02:00 132 8.3
2019-Nov-13 01:45 205 8.3
2019-Nov-13 01:30 205 8.3
2019-Nov-13 01:15 206 8.3
2019-Nov-13 01:00 223 8.3
2019-Nov-13 00:45 203 8.3
2019-Nov-13 00:30 204 8.3
2019-Nov-13 00:15 203 8.9
2019-Nov-13 00:00 200 8.9
2019-Nov-12 23:45 165 8.9
2019-Nov-12 23:15 141 8.9
2019-Nov-12 23:00 125 0 gusting 3 8.9
2019-Nov-12 22:45 130 0 gusting 2 8.9
2019-Nov-12 22:30 108 8.9
2019-Nov-12 22:16 162 0 gusting 2 8.9
2019-Nov-12 22:02 141 8.9
2019-Nov-12 21:46 130 1 gusting 4 8.3
2019-Nov-12 21:31 139 0 gusting 4 8.3
2019-Nov-12 21:16 115 0 gusting 5 8.3
2019-Nov-12 21:03 133 8.3
2019-Nov-12 20:48 117 8.3
2019-Nov-12 20:32 118 8.3
2019-Nov-12 20:16 173 8.3
2019-Nov-12 20:01 117 8.3
2019-Nov-12 19:46 148 8.3
2019-Nov-12 19:32 119 8.3
2019-Nov-12 19:16 203 8.3
2019-Nov-12 19:01 150 8.3
2019-Nov-12 18:47 170 8.3
2019-Nov-12 18:31 141 8.3
2019-Nov-12 18:16 120 8.3
2019-Nov-12 18:01 126 7.8
2019-Nov-12 17:46 148 7.8
2019-Nov-12 17:31 141 7.8
2019-Nov-12 17:16 138 7.8
2019-Nov-12 17:02 129 7.8
2019-Nov-12 16:46 179 7.8
2019-Nov-12 16:31 166 7.2
2019-Nov-12 16:16 167 7.2
2019-Nov-12 16:01 167 7.2
2019-Nov-12 15:46 119 7.2
2019-Nov-12 15:31 119 7.2
2019-Nov-12 15:16 119 7.2
2019-Nov-12 15:01 333 7.2
2019-Nov-12 14:46 334 7.2
2019-Nov-12 14:31 334 7.2
2019-Nov-12 14:01 005 7.2
2019-Nov-12 13:46 350 7.2
2019-Nov-12 13:31 010 7.2
2019-Nov-12 13:15 037 0 gusting 2 7.2
2019-Nov-12 13:01 004 0 gusting 1 6.7
2019-Nov-12 12:45 354 6.7
2019-Nov-12 12:31 338 6.7
2019-Nov-12 12:16 283 6.7
2019-Nov-12 12:01 283 6.7
2019-Nov-12 11:46 338 6.7
2019-Nov-12 11:30 321 6.7
2019-Nov-12 11:15 289 6.7
2019-Nov-12 11:01 278 6.7